ilmateenistus.ee keskkonnaagentuur.ee
EETN Таллинн
FTEO31 EETN 232300
TAF EETN 232303Z 2400/2424 VRB02KT CAVOK TEMPO 2400/2405 0300 BCFG
    BKN002 BECMG 2406/2408 36010KT TEMPO 2411/2420 BKN015 PROB40 TEMPO
    2420/2424 VRB02KT 2000 BR BKN005=

METAR EETN 240220Z 24002KT 9999 MIFG NSC 11/10 Q1013 =
Таллинн
EEKA Кярдла
METAR EEKA 240150Z NIL=
Кярдла
EEKE Курессааре
SPECI EEKE 240228Z AUTO 02004KT 9999NDV R17/P2000D R35/P2000D BCFG NCD 10/09 Q1014=
Курессааре
EEPU Пярну
METAR EEPU 240150Z NIL=
Пярну
EETU Тарту
FCEO32 EETN 232000 AAA
TAF AMD EETU 240000Z 2321/2403 CNL=

METAR EETU 240220Z AUTO 24003KT 9999 NCD 09/07 Q1013=
Тарту
EEEI Эмари
SPECI EEEI 240239Z AUTO 00000KT 9999 VV001 09/09 Q1014=
Эмари